sensor_id;sensor_type;location;lat;lon;timestamp;P1;durP1;ratioP1;P2;durP2;ratioP2
679;SDS011;322;48.846;9.230;2024-02-21T00:00:23;11.33;;;4.10;;
679;SDS011;322;48.846;9.230;2024-02-21T00:02:52;12.40;;;4.20;;
679;SDS011;322;48.846;9.230;2024-02-21T00:05:22;14.73;;;4.00;;
679;SDS011;322;48.846;9.230;2024-02-21T00:07:50;15.77;;;5.07;;
679;SDS011;322;48.846;9.230;2024-02-21T00:10:18;18.73;;;4.90;;
679;SDS011;322;48.846;9.230;2024-02-21T00:12:47;19.07;;;4.40;;
679;SDS011;322;48.846;9.230;2024-02-21T00:15:14;11.80;;;4.73;;
679;SDS011;322;48.846;9.230;2024-02-21T00:17:43;12.80;;;4.70;;
679;SDS011;322;48.846;9.230;2024-02-21T00:20:13;14.30;;;5.73;;
679;SDS011;322;48.846;9.230;2024-02-21T00:22:41;13.40;;;4.00;;
679;SDS011;322;48.846;9.230;2024-02-21T00:25:09;11.90;;;4.13;;
679;SDS011;322;48.846;9.230;2024-02-21T00:27:37;14.30;;;4.60;;
679;SDS011;322;48.846;9.230;2024-02-21T00:30:06;17.20;;;4.30;;
679;SDS011;322;48.846;9.230;2024-02-21T00:32:34;14.90;;;5.07;;
679;SDS011;322;48.846;9.230;2024-02-21T00:35:03;15.70;;;4.40;;
679;SDS011;322;48.846;9.230;2024-02-21T00:37:32;11.60;;;4.30;;
679;SDS011;322;48.846;9.230;2024-02-21T00:40:00;16.03;;;4.47;;
679;SDS011;322;48.846;9.230;2024-02-21T00:42:28;12.63;;;4.40;;
679;SDS011;322;48.846;9.230;2024-02-21T00:44:58;12.77;;;4.30;;
679;SDS011;322;48.846;9.230;2024-02-21T00:47:26;17.07;;;5.50;;
679;SDS011;322;48.846;9.230;2024-02-21T00:49:54;11.30;;;4.23;;
679;SDS011;322;48.846;9.230;2024-02-21T00:52:22;12.40;;;4.90;;
679;SDS011;322;48.846;9.230;2024-02-21T00:54:51;13.77;;;4.53;;
679;SDS011;322;48.846;9.230;2024-02-21T00:57:20;15.13;;;4.10;;
679;SDS011;322;48.846;9.230;2024-02-21T00:59:50;13.90;;;4.33;;
679;SDS011;322;48.846;9.230;2024-02-21T01:02:18;15.50;;;4.80;;
679;SDS011;322;48.846;9.230;2024-02-21T01:04:46;15.70;;;5.20;;
679;SDS011;322;48.846;9.230;2024-02-21T01:07:14;15.57;;;4.23;;
679;SDS011;322;48.846;9.230;2024-02-21T01:09:42;14.00;;;4.77;;
679;SDS011;322;48.846;9.230;2024-02-21T01:12:11;14.10;;;4.50;;
679;SDS011;322;48.846;9.230;2024-02-21T01:14:39;13.37;;;5.87;;
679;SDS011;322;48.846;9.230;2024-02-21T01:17:07;13.47;;;4.20;;
679;SDS011;322;48.846;9.230;2024-02-21T01:19:35;10.37;;;4.17;;
679;SDS011;322;48.846;9.230;2024-02-21T01:22:03;14.70;;;4.47;;
679;SDS011;322;48.846;9.230;2024-02-21T01:24:31;13.10;;;4.80;;
679;SDS011;322;48.846;9.230;2024-02-21T01:26:59;14.53;;;4.73;;
679;SDS011;322;48.846;9.230;2024-02-21T01:29:29;11.17;;;3.27;;
679;SDS011;322;48.846;9.230;2024-02-21T01:31:57;15.30;;;5.43;;
679;SDS011;322;48.846;9.230;2024-02-21T01:34:25;22.70;;;5.70;;
679;SDS011;322;48.846;9.230;2024-02-21T01:36:57;12.97;;;4.57;;
679;SDS011;322;48.846;9.230;2024-02-21T01:39:30;14.03;;;4.40;;
679;SDS011;322;48.846;9.230;2024-02-21T01:41:58;14.40;;;5.17;;
679;SDS011;322;48.846;9.230;2024-02-21T01:44:26;20.10;;;6.53;;
679;SDS011;322;48.846;9.230;2024-02-21T01:46:55;13.57;;;4.10;;
679;SDS011;322;48.846;9.230;2024-02-21T01:49:23;12.50;;;3.87;;
679;SDS011;322;48.846;9.230;2024-02-21T01:51:52;11.73;;;3.87;;
679;SDS011;322;48.846;9.230;2024-02-21T01:54:20;13.00;;;4.00;;
679;SDS011;322;48.846;9.230;2024-02-21T01:56:48;13.13;;;4.27;;
679;SDS011;322;48.846;9.230;2024-02-21T01:59:17;13.63;;;4.30;;
679;SDS011;322;48.846;9.230;2024-02-21T02:01:46;13.00;;;5.10;;
679;SDS011;322;48.846;9.230;2024-02-21T02:04:16;15.20;;;4.30;;
679;SDS011;322;48.846;9.230;2024-02-21T02:06:44;14.57;;;4.77;;
679;SDS011;322;48.846;9.230;2024-02-21T02:09:12;14.40;;;4.00;;
679;SDS011;322;48.846;9.230;2024-02-21T02:11:40;13.50;;;4.80;;
679;SDS011;322;48.846;9.230;2024-02-21T02:14:08;13.70;;;4.03;;
679;SDS011;322;48.846;9.230;2024-02-21T02:16:36;12.73;;;4.13;;
679;SDS011;322;48.846;9.230;2024-02-21T02:19:04;12.93;;;4.10;;
679;SDS011;322;48.846;9.230;2024-02-21T02:21:36;13.50;;;5.77;;
679;SDS011;322;48.846;9.230;2024-02-21T02:24:10;12.43;;;4.07;;
679;SDS011;322;48.846;9.230;2024-02-21T02:26:38;15.20;;;4.13;;
679;SDS011;322;48.846;9.230;2024-02-21T02:29:05;14.57;;;5.63;;
679;SDS011;322;48.846;9.230;2024-02-21T02:31:33;12.17;;;4.07;;
679;SDS011;322;48.846;9.230;2024-02-21T02:34:03;12.83;;;4.03;;
679;SDS011;322;48.846;9.230;2024-02-21T02:36:32;11.80;;;4.33;;
679;SDS011;322;48.846;9.230;2024-02-21T02:39:00;11.67;;;3.80;;
679;SDS011;322;48.846;9.230;2024-02-21T02:41:29;13.17;;;4.37;;
679;SDS011;322;48.846;9.230;2024-02-21T02:43:57;11.77;;;3.90;;
679;SDS011;322;48.846;9.230;2024-02-21T02:46:25;10.43;;;4.17;;
679;SDS011;322;48.846;9.230;2024-02-21T02:48:53;20.00;;;6.30;;
679;SDS011;322;48.846;9.230;2024-02-21T02:51:21;10.10;;;3.97;;
679;SDS011;322;48.846;9.230;2024-02-21T02:53:49;13.43;;;4.00;;
679;SDS011;322;48.846;9.230;2024-02-21T02:56:17;11.70;;;4.13;;
679;SDS011;322;48.846;9.230;2024-02-21T02:58:46;9.80;;;3.47;;
679;SDS011;322;48.846;9.230;2024-02-21T03:01:14;12.77;;;3.23;;
679;SDS011;322;48.846;9.230;2024-02-21T03:03:43;13.40;;;4.00;;
679;SDS011;322;48.846;9.230;2024-02-21T03:06:11;13.33;;;4.23;;
679;SDS011;322;48.846;9.230;2024-02-21T03:08:39;10.50;;;4.40;;
679;SDS011;322;48.846;9.230;2024-02-21T03:11:10;12.77;;;3.70;;
679;SDS011;322;48.846;9.230;2024-02-21T03:13:38;11.13;;;4.03;;
679;SDS011;322;48.846;9.230;2024-02-21T03:16:07;12.30;;;3.70;;
679;SDS011;322;48.846;9.230;2024-02-21T03:18:35;10.73;;;3.80;;
679;SDS011;322;48.846;9.230;2024-02-21T03:21:04;15.03;;;3.50;;
679;SDS011;322;48.846;9.230;2024-02-21T03:23:32;19.13;;;4.00;;
679;SDS011;322;48.846;9.230;2024-02-21T03:26:00;14.37;;;3.77;;
679;SDS011;322;48.846;9.230;2024-02-21T03:28:28;11.97;;;3.20;;
679;SDS011;322;48.846;9.230;2024-02-21T03:30:57;10.07;;;2.80;;
679;SDS011;322;48.846;9.230;2024-02-21T03:33:26;12.30;;;3.07;;
679;SDS011;322;48.846;9.230;2024-02-21T03:35:54;13.73;;;3.37;;
679;SDS011;322;48.846;9.230;2024-02-21T03:38:22;11.43;;;3.80;;
679;SDS011;322;48.846;9.230;2024-02-21T03:40:50;10.60;;;3.50;;
679;SDS011;322;48.846;9.230;2024-02-21T03:43:18;12.63;;;3.83;;
679;SDS011;322;48.846;9.230;2024-02-21T03:45:46;12.87;;;3.67;;
679;SDS011;322;48.846;9.230;2024-02-21T03:48:14;12.83;;;3.40;;
679;SDS011;322;48.846;9.230;2024-02-21T03:50:43;12.10;;;4.00;;
679;SDS011;322;48.846;9.230;2024-02-21T03:53:11;11.60;;;3.20;;
679;SDS011;322;48.846;9.230;2024-02-21T03:55:39;10.33;;;3.50;;
679;SDS011;322;48.846;9.230;2024-02-21T03:58:07;11.83;;;3.67;;
679;SDS011;322;48.846;9.230;2024-02-21T04:00:35;13.03;;;3.20;;
679;SDS011;322;48.846;9.230;2024-02-21T04:03:03;12.57;;;3.90;;
679;SDS011;322;48.846;9.230;2024-02-21T04:05:32;17.10;;;3.83;;
679;SDS011;322;48.846;9.230;2024-02-21T04:08:04;13.33;;;3.13;;
679;SDS011;322;48.846;9.230;2024-02-21T04:10:33;11.03;;;3.20;;
679;SDS011;322;48.846;9.230;2024-02-21T04:13:00;11.27;;;3.03;;
679;SDS011;322;48.846;9.230;2024-02-21T04:15:28;9.50;;;2.70;;
679;SDS011;322;48.846;9.230;2024-02-21T04:17:56;14.13;;;3.50;;
679;SDS011;322;48.846;9.230;2024-02-21T04:20:24;12.37;;;3.83;;
679;SDS011;322;48.846;9.230;2024-02-21T04:22:52;16.60;;;3.23;;
679;SDS011;322;48.846;9.230;2024-02-21T04:25:25;11.17;;;3.10;;
679;SDS011;322;48.846;9.230;2024-02-21T04:27:53;8.70;;;3.00;;
679;SDS011;322;48.846;9.230;2024-02-21T04:30:23;12.33;;;4.13;;
679;SDS011;322;48.846;9.230;2024-02-21T04:32:51;10.87;;;3.90;;
679;SDS011;322;48.846;9.230;2024-02-21T04:35:19;11.60;;;3.33;;
679;SDS011;322;48.846;9.230;2024-02-21T04:37:48;10.43;;;3.60;;
679;SDS011;322;48.846;9.230;2024-02-21T04:40:17;13.60;;;3.83;;
679;SDS011;322;48.846;9.230;2024-02-21T04:42:47;11.83;;;3.70;;
679;SDS011;322;48.846;9.230;2024-02-21T04:45:15;10.70;;;3.30;;
679;SDS011;322;48.846;9.230;2024-02-21T04:47:43;15.70;;;4.00;;
679;SDS011;322;48.846;9.230;2024-02-21T04:50:11;10.70;;;3.73;;
679;SDS011;322;48.846;9.230;2024-02-21T04:52:40;11.67;;;4.00;;
679;SDS011;322;48.846;9.230;2024-02-21T04:55:08;15.07;;;4.47;;
679;SDS011;322;48.846;9.230;2024-02-21T04:57:35;8.90;;;3.00;;
679;SDS011;322;48.846;9.230;2024-02-21T05:00:05;12.73;;;3.53;;
679;SDS011;322;48.846;9.230;2024-02-21T05:02:35;11.60;;;3.60;;
679;SDS011;322;48.846;9.230;2024-02-21T05:05:03;13.33;;;3.53;;
679;SDS011;322;48.846;9.230;2024-02-21T05:07:31;12.03;;;3.20;;
679;SDS011;322;48.846;9.230;2024-02-21T05:09:59;12.60;;;3.70;;
679;SDS011;322;48.846;9.230;2024-02-21T05:12:27;9.23;;;3.00;;
679;SDS011;322;48.846;9.230;2024-02-21T05:14:56;12.23;;;4.47;;
679;SDS011;322;48.846;9.230;2024-02-21T05:17:25;13.57;;;4.03;;
679;SDS011;322;48.846;9.230;2024-02-21T05:19:53;12.40;;;4.17;;
679;SDS011;322;48.846;9.230;2024-02-21T05:22:21;12.33;;;3.87;;
679;SDS011;322;48.846;9.230;2024-02-21T05:24:49;13.37;;;3.73;;
679;SDS011;322;48.846;9.230;2024-02-21T05:27:17;15.77;;;4.27;;
679;SDS011;322;48.846;9.230;2024-02-21T05:29:45;13.30;;;4.27;;
679;SDS011;322;48.846;9.230;2024-02-21T05:32:14;12.00;;;4.20;;
679;SDS011;322;48.846;9.230;2024-02-21T05:34:43;11.10;;;3.37;;
679;SDS011;322;48.846;9.230;2024-02-21T05:37:12;10.80;;;3.63;;
679;SDS011;322;48.846;9.230;2024-02-21T05:39:40;14.00;;;3.00;;
679;SDS011;322;48.846;9.230;2024-02-21T05:42:07;13.47;;;3.83;;
679;SDS011;322;48.846;9.230;2024-02-21T05:44:35;10.70;;;3.60;;
679;SDS011;322;48.846;9.230;2024-02-21T05:47:03;9.80;;;3.40;;
679;SDS011;322;48.846;9.230;2024-02-21T05:49:36;11.47;;;3.70;;
679;SDS011;322;48.846;9.230;2024-02-21T05:52:05;10.73;;;2.83;;
679;SDS011;322;48.846;9.230;2024-02-21T05:54:33;12.40;;;3.47;;
679;SDS011;322;48.846;9.230;2024-02-21T05:57:04;10.90;;;3.37;;
679;SDS011;322;48.846;9.230;2024-02-21T05:59:33;10.83;;;2.90;;
679;SDS011;322;48.846;9.230;2024-02-21T06:02:02;11.30;;;4.07;;
679;SDS011;322;48.846;9.230;2024-02-21T06:04:31;13.80;;;3.80;;
679;SDS011;322;48.846;9.230;2024-02-21T06:06:59;14.43;;;2.90;;
679;SDS011;322;48.846;9.230;2024-02-21T06:09:28;14.50;;;3.40;;
679;SDS011;322;48.846;9.230;2024-02-21T06:11:56;10.27;;;3.50;;
679;SDS011;322;48.846;9.230;2024-02-21T06:14:24;10.20;;;3.20;;
679;SDS011;322;48.846;9.230;2024-02-21T06:16:52;14.10;;;3.07;;
679;SDS011;322;48.846;9.230;2024-02-21T06:19:20;8.20;;;2.50;;
679;SDS011;322;48.846;9.230;2024-02-21T06:21:48;10.97;;;3.23;;
679;SDS011;322;48.846;9.230;2024-02-21T06:24:16;14.20;;;3.40;;
679;SDS011;322;48.846;9.230;2024-02-21T06:26:45;13.57;;;6.03;;
679;SDS011;322;48.846;9.230;2024-02-21T06:29:13;12.63;;;3.77;;
679;SDS011;322;48.846;9.230;2024-02-21T06:31:41;12.33;;;3.80;;
679;SDS011;322;48.846;9.230;2024-02-21T06:34:09;11.30;;;3.80;;
679;SDS011;322;48.846;9.230;2024-02-21T06:36:37;9.57;;;3.10;;
679;SDS011;322;48.846;9.230;2024-02-21T06:39:05;10.57;;;3.03;;
679;SDS011;322;48.846;9.230;2024-02-21T06:41:34;13.57;;;4.20;;
679;SDS011;322;48.846;9.230;2024-02-21T06:44:04;11.67;;;3.30;;
679;SDS011;322;48.846;9.230;2024-02-21T06:46:32;12.33;;;4.50;;
679;SDS011;322;48.846;9.230;2024-02-21T06:49:00;12.40;;;3.77;;
679;SDS011;322;48.846;9.230;2024-02-21T06:51:29;11.40;;;3.50;;
679;SDS011;322;48.846;9.230;2024-02-21T06:53:58;12.57;;;3.67;;
679;SDS011;322;48.846;9.230;2024-02-21T06:56:26;14.90;;;3.70;;
679;SDS011;322;48.846;9.230;2024-02-21T06:59:06;13.13;;;5.10;;
679;SDS011;322;48.846;9.230;2024-02-21T07:01:34;12.73;;;3.20;;
679;SDS011;322;48.846;9.230;2024-02-21T07:04:05;10.60;;;3.10;;
679;SDS011;322;48.846;9.230;2024-02-21T07:06:33;11.63;;;3.60;;
679;SDS011;322;48.846;9.230;2024-02-21T07:09:02;11.83;;;3.40;;
679;SDS011;322;48.846;9.230;2024-02-21T07:11:30;11.60;;;3.47;;
679;SDS011;322;48.846;9.230;2024-02-21T07:13:58;11.30;;;3.80;;
679;SDS011;322;48.846;9.230;2024-02-21T07:16:27;12.20;;;2.77;;
679;SDS011;322;48.846;9.230;2024-02-21T07:18:55;15.70;;;3.53;;
679;SDS011;322;48.846;9.230;2024-02-21T07:21:24;12.70;;;2.70;;
679;SDS011;322;48.846;9.230;2024-02-21T07:23:52;10.63;;;2.83;;
679;SDS011;322;48.846;9.230;2024-02-21T07:26:20;10.37;;;2.47;;
679;SDS011;322;48.846;9.230;2024-02-21T07:28:48;13.27;;;3.10;;
679;SDS011;322;48.846;9.230;2024-02-21T07:31:16;9.93;;;2.60;;
679;SDS011;322;48.846;9.230;2024-02-21T07:33:46;11.87;;;2.90;;
679;SDS011;322;48.846;9.230;2024-02-21T07:36:14;10.97;;;3.13;;
679;SDS011;322;48.846;9.230;2024-02-21T07:38:43;9.33;;;2.27;;
679;SDS011;322;48.846;9.230;2024-02-21T07:41:11;13.20;;;3.10;;
679;SDS011;322;48.846;9.230;2024-02-21T07:43:39;14.07;;;3.60;;
679;SDS011;322;48.846;9.230;2024-02-21T07:46:07;11.10;;;2.63;;
679;SDS011;322;48.846;9.230;2024-02-21T07:48:35;10.70;;;3.03;;
679;SDS011;322;48.846;9.230;2024-02-21T07:51:04;9.77;;;2.60;;
679;SDS011;322;48.846;9.230;2024-02-21T07:53:32;13.63;;;2.33;;
679;SDS011;322;48.846;9.230;2024-02-21T07:56:00;14.63;;;3.90;;
679;SDS011;322;48.846;9.230;2024-02-21T07:58:28;11.47;;;2.63;;
679;SDS011;322;48.846;9.230;2024-02-21T08:00:56;13.40;;;2.43;;
679;SDS011;322;48.846;9.230;2024-02-21T08:03:24;9.73;;;2.60;;
679;SDS011;322;48.846;9.230;2024-02-21T08:05:53;12.20;;;3.30;;
679;SDS011;322;48.846;9.230;2024-02-21T08:08:22;10.40;;;3.07;;
679;SDS011;322;48.846;9.230;2024-02-21T08:10:51;9.53;;;2.30;;
679;SDS011;322;48.846;9.230;2024-02-21T08:13:19;10.20;;;2.23;;
679;SDS011;322;48.846;9.230;2024-02-21T08:15:47;10.37;;;2.57;;
679;SDS011;322;48.846;9.230;2024-02-21T08:18:15;9.27;;;2.70;;
679;SDS011;322;48.846;9.230;2024-02-21T08:20:43;9.97;;;2.17;;
679;SDS011;322;48.846;9.230;2024-02-21T08:23:11;11.30;;;2.33;;
679;SDS011;322;48.846;9.230;2024-02-21T08:25:41;13.10;;;2.80;;
679;SDS011;322;48.846;9.230;2024-02-21T08:28:09;10.60;;;2.20;;
679;SDS011;322;48.846;9.230;2024-02-21T08:30:37;8.87;;;1.90;;
679;SDS011;322;48.846;9.230;2024-02-21T08:33:05;11.57;;;2.60;;
679;SDS011;322;48.846;9.230;2024-02-21T08:35:33;11.10;;;2.43;;
679;SDS011;322;48.846;9.230;2024-02-21T08:38:01;9.73;;;2.20;;
679;SDS011;322;48.846;9.230;2024-02-21T08:40:29;10.20;;;2.03;;
679;SDS011;322;48.846;9.230;2024-02-21T08:42:58;13.10;;;2.47;;
679;SDS011;322;48.846;9.230;2024-02-21T08:45:28;9.57;;;2.10;;
679;SDS011;322;48.846;9.230;2024-02-21T08:47:56;9.07;;;2.00;;
679;SDS011;322;48.846;9.230;2024-02-21T08:50:24;16.77;;;3.80;;
679;SDS011;322;48.846;9.230;2024-02-21T08:52:55;9.90;;;4.13;;
679;SDS011;322;48.846;9.230;2024-02-21T08:55:23;9.80;;;2.10;;
679;SDS011;322;48.846;9.230;2024-02-21T08:57:51;9.63;;;2.03;;
679;SDS011;322;48.846;9.230;2024-02-21T09:00:21;12.47;;;2.43;;
679;SDS011;322;48.846;9.230;2024-02-21T09:02:54;10.97;;;2.20;;
679;SDS011;322;48.846;9.230;2024-02-21T09:05:23;16.70;;;2.30;;
679;SDS011;322;48.846;9.230;2024-02-21T09:07:51;10.80;;;2.60;;
679;SDS011;322;48.846;9.230;2024-02-21T09:10:19;12.93;;;3.60;;
679;SDS011;322;48.846;9.230;2024-02-21T09:12:48;9.23;;;1.93;;
679;SDS011;322;48.846;9.230;2024-02-21T09:15:16;11.30;;;2.10;;
679;SDS011;322;48.846;9.230;2024-02-21T09:17:46;10.67;;;1.77;;
679;SDS011;322;48.846;9.230;2024-02-21T09:20:13;12.07;;;2.00;;
679;SDS011;322;48.846;9.230;2024-02-21T09:22:43;7.53;;;1.70;;
679;SDS011;322;48.846;9.230;2024-02-21T09:25:11;10.10;;;2.00;;
679;SDS011;322;48.846;9.230;2024-02-21T09:27:39;12.20;;;2.80;;
679;SDS011;322;48.846;9.230;2024-02-21T09:30:07;11.10;;;1.80;;
679;SDS011;322;48.846;9.230;2024-02-21T09:32:35;11.73;;;2.50;;
679;SDS011;322;48.846;9.230;2024-02-21T09:35:05;10.77;;;2.80;;
679;SDS011;322;48.846;9.230;2024-02-21T09:37:34;9.60;;;2.30;;
679;SDS011;322;48.846;9.230;2024-02-21T09:40:04;10.57;;;2.37;;
679;SDS011;322;48.846;9.230;2024-02-21T09:42:36;8.80;;;2.00;;
679;SDS011;322;48.846;9.230;2024-02-21T09:45:07;9.83;;;2.33;;
679;SDS011;322;48.846;9.230;2024-02-21T09:47:43;9.30;;;2.30;;
679;SDS011;322;48.846;9.230;2024-02-21T09:50:19;11.93;;;2.30;;
679;SDS011;322;48.846;9.230;2024-02-21T09:52:48;9.57;;;2.43;;
679;SDS011;322;48.846;9.230;2024-02-21T09:55:18;10.50;;;2.30;;
679;SDS011;322;48.846;9.230;2024-02-21T09:57:46;11.30;;;2.00;;
679;SDS011;322;48.846;9.230;2024-02-21T10:00:16;11.63;;;2.10;;
679;SDS011;322;48.846;9.230;2024-02-21T10:02:48;11.87;;;3.60;;
679;SDS011;322;48.846;9.230;2024-02-21T10:05:17;11.23;;;2.30;;
679;SDS011;322;48.846;9.230;2024-02-21T10:07:46;11.30;;;2.33;;
679;SDS011;322;48.846;9.230;2024-02-21T10:10:16;7.90;;;1.60;;
679;SDS011;322;48.846;9.230;2024-02-21T10:12:48;8.23;;;1.80;;
679;SDS011;322;48.846;9.230;2024-02-21T10:15:19;8.20;;;1.67;;
679;SDS011;322;48.846;9.230;2024-02-21T10:17:49;8.07;;;1.93;;
679;SDS011;322;48.846;9.230;2024-02-21T10:20:17;10.00;;;2.07;;
679;SDS011;322;48.846;9.230;2024-02-21T10:22:46;10.93;;;2.63;;
679;SDS011;322;48.846;9.230;2024-02-21T10:25:14;10.47;;;2.10;;
679;SDS011;322;48.846;9.230;2024-02-21T10:27:42;8.23;;;1.87;;
679;SDS011;322;48.846;9.230;2024-02-21T10:30:12;12.37;;;1.97;;
679;SDS011;322;48.846;9.230;2024-02-21T10:32:49;10.40;;;2.17;;
679;SDS011;322;48.846;9.230;2024-02-21T10:35:25;10.10;;;2.43;;
679;SDS011;322;48.846;9.230;2024-02-21T10:37:55;10.23;;;2.10;;
679;SDS011;322;48.846;9.230;2024-02-21T10:40:24;11.70;;;2.10;;
679;SDS011;322;48.846;9.230;2024-02-21T10:42:56;7.70;;;1.77;;
679;SDS011;322;48.846;9.230;2024-02-21T10:45:29;8.40;;;1.70;;
679;SDS011;322;48.846;9.230;2024-02-21T10:48:01;8.70;;;1.80;;
679;SDS011;322;48.846;9.230;2024-02-21T10:50:45;10.47;;;2.30;;
679;SDS011;322;48.846;9.230;2024-02-21T10:53:24;10.27;;;2.00;;
679;SDS011;322;48.846;9.230;2024-02-21T10:56:02;8.33;;;1.93;;
679;SDS011;322;48.846;9.230;2024-02-21T10:58:39;10.17;;;1.90;;
679;SDS011;322;48.846;9.230;2024-02-21T11:01:09;9.60;;;1.43;;
679;SDS011;322;48.846;9.230;2024-02-21T11:03:39;10.10;;;2.00;;
679;SDS011;322;48.846;9.230;2024-02-21T11:06:07;9.60;;;1.77;;
679;SDS011;322;48.846;9.230;2024-02-21T11:08:39;6.80;;;1.30;;
679;SDS011;322;48.846;9.230;2024-02-21T11:11:07;9.37;;;1.70;;
679;SDS011;322;48.846;9.230;2024-02-21T11:13:49;9.53;;;1.83;;
679;SDS011;322;48.846;9.230;2024-02-21T11:16:21;11.57;;;1.87;;
679;SDS011;322;48.846;9.230;2024-02-21T11:18:50;8.90;;;1.73;;
679;SDS011;322;48.846;9.230;2024-02-21T11:21:18;9.63;;;1.60;;
679;SDS011;322;48.846;9.230;2024-02-21T11:23:55;8.70;;;1.70;;
679;SDS011;322;48.846;9.230;2024-02-21T11:26:23;9.40;;;2.53;;
679;SDS011;322;48.846;9.230;2024-02-21T11:28:57;10.20;;;1.80;;
679;SDS011;322;48.846;9.230;2024-02-21T11:31:26;9.50;;;1.70;;
679;SDS011;322;48.846;9.230;2024-02-21T11:33:54;9.67;;;2.10;;
679;SDS011;322;48.846;9.230;2024-02-21T11:36:25;9.10;;;2.20;;
679;SDS011;322;48.846;9.230;2024-02-21T11:38:53;7.50;;;1.40;;
679;SDS011;322;48.846;9.230;2024-02-21T11:41:30;7.90;;;1.50;;
679;SDS011;322;48.846;9.230;2024-02-21T11:43:58;7.30;;;1.37;;
679;SDS011;322;48.846;9.230;2024-02-21T11:46:26;8.70;;;1.70;;
679;SDS011;322;48.846;9.230;2024-02-21T11:48:54;10.13;;;2.00;;
679;SDS011;322;48.846;9.230;2024-02-21T11:51:26;9.57;;;1.80;;
679;SDS011;322;48.846;9.230;2024-02-21T11:53:56;8.00;;;1.93;;
679;SDS011;322;48.846;9.230;2024-02-21T11:56:27;9.20;;;2.00;;
679;SDS011;322;48.846;9.230;2024-02-21T11:58:55;9.30;;;2.07;;
679;SDS011;322;48.846;9.230;2024-02-21T12:01:26;7.63;;;1.13;;
679;SDS011;322;48.846;9.230;2024-02-21T12:03:55;8.03;;;1.60;;
679;SDS011;322;48.846;9.230;2024-02-21T12:06:23;9.50;;;1.90;;
679;SDS011;322;48.846;9.230;2024-02-21T12:08:51;9.30;;;1.70;;
679;SDS011;322;48.846;9.230;2024-02-21T12:11:21;8.57;;;1.70;;
679;SDS011;322;48.846;9.230;2024-02-21T12:13:59;9.23;;;1.70;;
679;SDS011;322;48.846;9.230;2024-02-21T12:16:29;9.53;;;1.90;;
679;SDS011;322;48.846;9.230;2024-02-21T12:18:58;9.40;;;1.60;;
679;SDS011;322;48.846;9.230;2024-02-21T12:21:29;8.00;;;1.63;;
679;SDS011;322;48.846;9.230;2024-02-21T12:23:59;8.90;;;1.70;;
679;SDS011;322;48.846;9.230;2024-02-21T12:26:28;9.37;;;2.27;;
679;SDS011;322;48.846;9.230;2024-02-21T12:28:56;8.93;;;1.70;;
679;SDS011;322;48.846;9.230;2024-02-21T12:31:24;8.63;;;1.70;;
679;SDS011;322;48.846;9.230;2024-02-21T12:33:53;9.10;;;1.57;;
679;SDS011;322;48.846;9.230;2024-02-21T12:36:21;8.40;;;1.80;;
679;SDS011;322;48.846;9.230;2024-02-21T12:38:49;8.73;;;1.50;;
679;SDS011;322;48.846;9.230;2024-02-21T12:41:17;8.83;;;2.17;;
679;SDS011;322;48.846;9.230;2024-02-21T12:43:47;12.00;;;2.03;;
679;SDS011;322;48.846;9.230;2024-02-21T12:46:15;7.73;;;1.80;;
679;SDS011;322;48.846;9.230;2024-02-21T12:48:43;8.40;;;1.63;;
679;SDS011;322;48.846;9.230;2024-02-21T12:51:11;8.80;;;1.70;;
679;SDS011;322;48.846;9.230;2024-02-21T12:53:39;9.97;;;3.47;;
679;SDS011;322;48.846;9.230;2024-02-21T12:56:07;9.73;;;1.67;;
679;SDS011;322;48.846;9.230;2024-02-21T12:58:35;9.07;;;2.30;;
679;SDS011;322;48.846;9.230;2024-02-21T13:01:04;7.63;;;1.70;;
679;SDS011;322;48.846;9.230;2024-02-21T13:03:32;9.13;;;1.47;;
679;SDS011;322;48.846;9.230;2024-02-21T13:06:00;12.97;;;2.17;;
679;SDS011;322;48.846;9.230;2024-02-21T13:08:28;8.27;;;1.50;;
679;SDS011;322;48.846;9.230;2024-02-21T13:10:56;9.43;;;1.50;;
679;SDS011;322;48.846;9.230;2024-02-21T13:13:24;9.97;;;1.97;;
679;SDS011;322;48.846;9.230;2024-02-21T13:15:52;10.37;;;1.70;;
679;SDS011;322;48.846;9.230;2024-02-21T13:18:22;10.20;;;1.73;;
679;SDS011;322;48.846;9.230;2024-02-21T13:20:50;11.30;;;1.90;;
679;SDS011;322;48.846;9.230;2024-02-21T13:23:18;9.20;;;1.73;;
679;SDS011;322;48.846;9.230;2024-02-21T13:25:47;9.13;;;1.53;;
679;SDS011;322;48.846;9.230;2024-02-21T13:28:16;9.10;;;1.80;;
679;SDS011;322;48.846;9.230;2024-02-21T13:30:44;9.10;;;2.10;;
679;SDS011;322;48.846;9.230;2024-02-21T13:33:12;11.63;;;2.53;;
679;SDS011;322;48.846;9.230;2024-02-21T13:35:42;9.10;;;2.17;;
679;SDS011;322;48.846;9.230;2024-02-21T13:38:10;11.27;;;1.73;;
679;SDS011;322;48.846;9.230;2024-02-21T13:40:40;8.93;;;2.10;;
679;SDS011;322;48.846;9.230;2024-02-21T13:43:09;8.10;;;1.67;;
679;SDS011;322;48.846;9.230;2024-02-21T13:45:38;10.30;;;1.70;;
679;SDS011;322;48.846;9.230;2024-02-21T13:48:09;12.80;;;1.60;;
679;SDS011;322;48.846;9.230;2024-02-21T13:50:42;8.20;;;1.20;;
679;SDS011;322;48.846;9.230;2024-02-21T13:53:10;12.03;;;2.20;;
679;SDS011;322;48.846;9.230;2024-02-21T13:55:38;7.97;;;1.67;;
679;SDS011;322;48.846;9.230;2024-02-21T13:58:07;9.37;;;1.77;;
679;SDS011;322;48.846;9.230;2024-02-21T14:00:35;8.03;;;1.30;;
679;SDS011;322;48.846;9.230;2024-02-21T14:03:03;8.80;;;1.93;;
679;SDS011;322;48.846;9.230;2024-02-21T14:05:31;8.67;;;1.57;;
679;SDS011;322;48.846;9.230;2024-02-21T14:08:01;9.20;;;1.30;;
679;SDS011;322;48.846;9.230;2024-02-21T14:10:29;8.87;;;1.80;;
679;SDS011;322;48.846;9.230;2024-02-21T14:12:57;10.77;;;1.80;;
679;SDS011;322;48.846;9.230;2024-02-21T14:15:25;12.30;;;2.10;;
679;SDS011;322;48.846;9.230;2024-02-21T14:17:53;9.57;;;2.00;;
679;SDS011;322;48.846;9.230;2024-02-21T14:20:21;10.87;;;1.83;;
679;SDS011;322;48.846;9.230;2024-02-21T14:22:49;10.83;;;1.87;;
679;SDS011;322;48.846;9.230;2024-02-21T14:25:19;9.20;;;1.60;;
679;SDS011;322;48.846;9.230;2024-02-21T14:27:47;8.10;;;1.80;;
679;SDS011;322;48.846;9.230;2024-02-21T14:30:15;9.10;;;1.90;;
679;SDS011;322;48.846;9.230;2024-02-21T14:32:43;11.30;;;2.63;;
679;SDS011;322;48.846;9.230;2024-02-21T14:35:12;8.13;;;1.90;;
679;SDS011;322;48.846;9.230;2024-02-21T14:37:40;9.20;;;1.37;;
679;SDS011;322;48.846;9.230;2024-02-21T14:40:08;11.10;;;1.60;;
679;SDS011;322;48.846;9.230;2024-02-21T14:42:38;9.00;;;1.70;;
679;SDS011;322;48.846;9.230;2024-02-21T14:45:06;8.10;;;1.37;;
679;SDS011;322;48.846;9.230;2024-02-21T14:47:35;8.90;;;2.00;;
679;SDS011;322;48.846;9.230;2024-02-21T14:50:03;8.10;;;1.60;;
679;SDS011;322;48.846;9.230;2024-02-21T14:52:31;9.63;;;2.33;;
679;SDS011;322;48.846;9.230;2024-02-21T14:55:01;9.43;;;1.90;;
679;SDS011;322;48.846;9.230;2024-02-21T14:57:30;8.30;;;1.50;;
679;SDS011;322;48.846;9.230;2024-02-21T14:59:59;8.10;;;1.77;;
679;SDS011;322;48.846;9.230;2024-02-21T15:02:28;9.23;;;1.93;;
679;SDS011;322;48.846;9.230;2024-02-21T15:04:56;8.97;;;1.53;;
679;SDS011;322;48.846;9.230;2024-02-21T15:07:24;8.57;;;1.30;;
679;SDS011;322;48.846;9.230;2024-02-21T15:09:53;9.40;;;1.40;;
679;SDS011;322;48.846;9.230;2024-02-21T15:12:21;15.93;;;3.13;;
679;SDS011;322;48.846;9.230;2024-02-21T15:14:49;9.40;;;1.40;;
679;SDS011;322;48.846;9.230;2024-02-21T15:17:19;7.83;;;1.70;;
679;SDS011;322;48.846;9.230;2024-02-21T15:19:47;8.77;;;0.93;;
679;SDS011;322;48.846;9.230;2024-02-21T15:22:16;9.37;;;1.20;;
679;SDS011;322;48.846;9.230;2024-02-21T15:24:46;9.83;;;1.10;;
679;SDS011;322;48.846;9.230;2024-02-21T15:27:15;8.23;;;1.00;;
679;SDS011;322;48.846;9.230;2024-02-21T15:29:43;7.10;;;1.17;;
679;SDS011;322;48.846;9.230;2024-02-21T15:32:11;7.03;;;1.23;;
679;SDS011;322;48.846;9.230;2024-02-21T15:34:40;7.80;;;1.20;;
679;SDS011;322;48.846;9.230;2024-02-21T15:37:09;8.20;;;1.37;;
679;SDS011;322;48.846;9.230;2024-02-21T15:39:38;7.10;;;0.90;;
679;SDS011;322;48.846;9.230;2024-02-21T15:42:06;7.97;;;2.13;;
679;SDS011;322;48.846;9.230;2024-02-21T15:44:34;7.13;;;1.20;;